Time;durP1;ratioP1;P1;durP2;ratioP2;P2;SDS_P1;SDS_P2;PMS_P1;PMS_P2;Temp;Humidity;BMP_temperature;BMP_pressure;BME280_temperature;BME280_humidity;BME280_pressure;Samples;Min_cycle;Max_cycle;Signal;HPM_P1;HPM_P2
2022/09/23 00:02:16;;;;;;;13.77;7.38;;;;;;;;;;5011238;28;20060;-81
2022/09/23 00:04:43;;;;;;;12.07;6.85;;;;;;;;;;5014032;28;20060;-80
2022/09/23 00:07:09;;;;;;;13.73;7.15;;;;;;;;;;5013153;28;20540;-80
2022/09/23 00:09:36;;;;;;;16.10;6.70;;;;;;;;;;5012342;28;20502;-80
2022/09/23 00:12:02;;;;;;;13.07;6.90;;;;;;;;;;5013354;28;20076;-82
2022/09/23 00:14:35;;;;;;;12.63;6.57;;;;;;;;;;5016965;28;20561;-81
2022/09/23 00:17:01;;;;;;;14.45;7.22;;;;;;;;;;5014358;28;20140;-81
2022/09/23 00:19:28;;;;;;;13.52;6.90;;;;;;;;;;5012350;28;20042;-80
2022/09/23 00:21:55;;;;;;;13.93;6.85;;;;;;;;;;4996504;28;20045;-79
2022/09/23 00:24:22;;;;;;;15.55;6.88;;;;;;;;;;5013619;28;20052;-80
2022/09/23 00:26:48;;;;;;;14.23;6.43;;;;;;;;;;5014045;28;20049;-80
2022/09/23 00:29:15;;;;;;;13.85;7.60;;;;;;;;;;4996608;28;20077;-79
2022/09/23 00:31:41;;;;;;;11.63;7.20;;;;;;;;;;5014433;28;20090;-80
2022/09/23 00:34:09;;;;;;;12.50;7.40;;;;;;;;;;5012615;28;20061;-81
2022/09/23 00:36:39;;;;;;;12.52;6.22;;;;;;;;;;5012836;28;20152;-80
2022/09/23 00:39:05;;;;;;;13.50;6.32;;;;;;;;;;5012842;28;20054;-81
2022/09/23 00:41:33;;;;;;;11.50;5.95;;;;;;;;;;5012265;28;20053;-81
2022/09/23 00:44:01;;;;;;;11.77;6.18;;;;;;;;;;5013008;28;20058;-81
2022/09/23 00:46:39;;;;;;;16.42;6.32;;;;;;;;;;4998734;28;20038;-80
2022/09/23 00:49:14;;;;;;;16.30;6.68;;;;;;;;;;4994623;28;20061;-79
2022/09/23 00:51:45;;;;;;;12.88;6.47;;;;;;;;;;4993858;28;20058;-80
2022/09/23 00:54:12;;;;;;;13.40;6.70;;;;;;;;;;4994803;28;20054;-81
2022/09/23 00:56:39;;;;;;;11.65;6.53;;;;;;;;;;4995256;28;20598;-79
2022/09/23 00:59:06;;;;;;;12.20;6.88;;;;;;;;;;4979953;28;20058;-79
2022/09/23 01:01:32;;;;;;;10.52;6.07;;;;;;;;;;4992822;28;20631;-80
2022/09/23 01:03:59;;;;;;;12.52;6.93;;;;;;;;;;4993949;28;20042;-80
2022/09/23 01:06:25;;;;;;;13.30;6.63;;;;;;;;;;4995182;28;20047;-79
2022/09/23 01:08:52;;;;;;;10.50;6.85;;;;;;;;;;4994744;28;20048;-80
2022/09/23 01:11:37;;;;;;;11.77;6.53;;;;;;;;;;4994195;28;20053;-81
2022/09/23 01:14:09;;;;;;;13.80;7.03;;;;;;;;;;4995462;28;20053;-81
2022/09/23 01:16:57;;;;;;;12.98;6.55;;;;;;;;;;4995511;28;20058;-78
2022/09/23 01:19:42;;;;;;;10.40;5.78;;;;;;;;;;4993193;28;20047;-81
2022/09/23 01:22:12;;;;;;;11.48;6.45;;;;;;;;;;4994633;28;20129;-80
2022/09/23 01:24:45;;;;;;;11.23;6.47;;;;;;;;;;4975619;28;20069;-80
2022/09/23 01:27:18;;;;;;;14.70;6.35;;;;;;;;;;4996074;28;20050;-81
2022/09/23 01:30:15;;;;;;;11.27;6.55;;;;;;;;;;4994849;28;20050;-79
2022/09/23 01:32:41;;;;;;;11.00;6.45;;;;;;;;;;4957257;28;21060;-82
2022/09/23 01:35:21;;;;;;;12.77;7.10;;;;;;;;;;4994058;28;20105;-80
2022/09/23 01:37:47;;;;;;;10.90;6.65;;;;;;;;;;4993786;28;20077;-80
2022/09/23 01:40:14;;;;;;;11.88;6.35;;;;;;;;;;4992445;28;20506;-80
2022/09/23 01:42:43;;;;;;;11.32;6.30;;;;;;;;;;4994047;28;20081;-80
2022/09/23 01:45:11;;;;;;;11.35;6.60;;;;;;;;;;4992863;28;20400;-79
2022/09/23 01:47:43;;;;;;;13.82;6.25;;;;;;;;;;4994135;28;20133;-80
2022/09/23 01:53:16;;;;;;;10.25;5.82;;;;;;;;;;4980654;28;20077;-80
2022/09/23 01:55:47;;;;;;;11.70;6.18;;;;;;;;;;4993594;28;20056;-80
2022/09/23 01:58:17;;;;;;;12.60;6.68;;;;;;;;;;4991924;28;20046;-80
2022/09/23 02:00:56;;;;;;;9.63;5.85;;;;;;;;;;4992739;28;20069;-79
2022/09/23 02:03:38;;;;;;;15.10;6.60;;;;;;;;;;4976390;28;20073;-79
2022/09/23 02:06:14;;;;;;;9.93;5.80;;;;;;;;;;4975538;28;20482;-79
2022/09/23 02:08:47;;;;;;;14.63;6.68;;;;;;;;;;4992307;28;20054;-80
2022/09/23 02:11:14;;;;;;;14.43;6.50;;;;;;;;;;4992785;28;20072;-80
2022/09/23 02:13:43;;;;;;;11.43;6.50;;;;;;;;;;4992912;28;20160;-80
2022/09/23 02:16:20;;;;;;;11.43;6.35;;;;;;;;;;5007852;28;20102;-79
2022/09/23 02:18:52;;;;;;;12.75;6.13;;;;;;;;;;5006011;28;20056;-80
2022/09/23 02:21:20;;;;;;;12.45;7.10;;;;;;;;;;4994153;28;20066;-81
2022/09/23 02:24:00;;;;;;;10.43;6.65;;;;;;;;;;4992112;28;20047;-81
2022/09/23 02:26:32;;;;;;;12.88;6.05;;;;;;;;;;4996014;28;20094;-79
2022/09/23 02:29:07;;;;;;;10.00;6.22;;;;;;;;;;5013524;28;20049;-78
2022/09/23 02:31:55;;;;;;;12.38;6.15;;;;;;;;;;5014207;28;20035;-80
2022/09/23 02:34:28;;;;;;;10.52;5.75;;;;;;;;;;4995354;28;20069;-80
2022/09/23 02:37:10;;;;;;;9.25;5.75;;;;;;;;;;4994384;28;20074;-80
2022/09/23 02:39:40;;;;;;;10.85;5.43;;;;;;;;;;4993221;28;20446;-81
2022/09/23 02:42:11;;;;;;;12.25;6.55;;;;;;;;;;4994476;28;20072;-80
2022/09/23 02:44:38;;;;;;;10.85;6.30;;;;;;;;;;4994761;28;20046;-80
2022/09/23 02:47:07;;;;;;;10.77;6.00;;;;;;;;;;4979635;28;20050;-80
2022/09/23 02:49:35;;;;;;;10.80;6.28;;;;;;;;;;4975273;28;20395;-79
2022/09/23 02:52:03;;;;;;;12.88;5.90;;;;;;;;;;4997791;28;20058;-80
2022/09/23 02:54:32;;;;;;;13.10;6.22;;;;;;;;;;4992983;28;20065;-80
2022/09/23 02:57:04;;;;;;;11.63;5.97;;;;;;;;;;4974289;28;20134;-79
2022/09/23 02:59:31;;;;;;;13.68;6.07;;;;;;;;;;4990656;28;20471;-81
2022/09/23 03:02:00;;;;;;;13.02;6.20;;;;;;;;;;4974943;28;20054;-79
2022/09/23 03:04:49;;;;;;;10.73;5.53;;;;;;;;;;4992092;28;20050;-78
2022/09/23 03:07:17;;;;;;;12.18;5.82;;;;;;;;;;4992616;28;20086;-78
2022/09/23 03:09:56;;;;;;;11.82;5.90;;;;;;;;;;4991709;28;20042;-81
2022/09/23 03:12:34;;;;;;;14.52;6.43;;;;;;;;;;4993250;28;20450;-80
2022/09/23 03:15:04;;;;;;;11.52;6.60;;;;;;;;;;4992564;28;20136;-78
2022/09/23 03:17:33;;;;;;;12.10;6.47;;;;;;;;;;4991614;28;20236;-79
2022/09/23 03:20:03;;;;;;;10.52;6.28;;;;;;;;;;4990028;28;20483;-80
2022/09/23 03:22:36;;;;;;;13.55;6.13;;;;;;;;;;4973422;28;20073;-81
2022/09/23 03:25:06;;;;;;;10.50;5.85;;;;;;;;;;4991208;28;20499;-80
2022/09/23 03:27:35;;;;;;;10.10;6.00;;;;;;;;;;4992070;28;20047;-79
2022/09/23 03:30:03;;;;;;;9.73;5.90;;;;;;;;;;4991072;28;20047;-79
2022/09/23 03:32:31;;;;;;;12.35;6.50;;;;;;;;;;4992047;28;20042;-81
2022/09/23 03:34:59;;;;;;;10.25;6.00;;;;;;;;;;4993022;28;20055;-80
2022/09/23 03:37:38;;;;;;;12.98;6.40;;;;;;;;;;4996085;28;20077;-79
2022/09/23 03:40:07;;;;;;;11.85;6.22;;;;;;;;;;4995132;28;20407;-81
2022/09/23 03:42:35;;;;;;;16.00;6.20;;;;;;;;;;4997891;28;20077;-80
2022/09/23 03:45:06;;;;;;;14.02;7.15;;;;;;;;;;4997776;28;20060;-81
2022/09/23 03:47:32;;;;;;;15.05;6.15;;;;;;;;;;4996869;28;20561;-80
2022/09/23 03:49:58;;;;;;;13.18;5.90;;;;;;;;;;4996440;28;20046;-80
2022/09/23 03:52:25;;;;;;;11.70;6.47;;;;;;;;;;4996864;28;20085;-79
2022/09/23 03:54:51;;;;;;;11.25;6.05;;;;;;;;;;4997032;28;20556;-79
2022/09/23 03:57:20;;;;;;;11.27;5.80;;;;;;;;;;4995750;28;20422;-81
2022/09/23 03:59:49;;;;;;;9.73;5.95;;;;;;;;;;4976161;28;20057;-80
2022/09/23 04:02:16;;;;;;;11.32;6.30;;;;;;;;;;4989481;28;20141;-81
2022/09/23 04:04:42;;;;;;;10.98;5.90;;;;;;;;;;4994242;28;20042;-81
2022/09/23 04:07:10;;;;;;;10.32;6.07;;;;;;;;;;4995558;28;20046;-80
2022/09/23 04:09:36;;;;;;;11.80;5.75;;;;;;;;;;4994603;28;20061;-80
2022/09/23 04:12:03;;;;;;;9.65;5.55;;;;;;;;;;4994247;28;20049;-80
2022/09/23 04:14:30;;;;;;;9.63;6.07;;;;;;;;;;4976277;28;20054;-80
2022/09/23 04:16:56;;;;;;;11.52;6.20;;;;;;;;;;4995008;28;20062;-80
2022/09/23 04:19:23;;;;;;;11.60;6.15;;;;;;;;;;4993175;28;20386;-81
2022/09/23 04:21:49;;;;;;;11.23;5.90;;;;;;;;;;4995449;28;20054;-81
2022/09/23 04:24:15;;;;;;;10.43;5.55;;;;;;;;;;4994541;28;20507;-80
2022/09/23 04:26:42;;;;;;;11.10;5.75;;;;;;;;;;4995505;28;20146;-80
2022/09/23 04:29:09;;;;;;;10.98;5.97;;;;;;;;;;4992226;28;20050;-80
2022/09/23 04:31:36;;;;;;;9.70;5.28;;;;;;;;;;4993036;28;20042;-84
2022/09/23 04:34:02;;;;;;;8.07;4.72;;;;;;;;;;4993650;28;20058;-81
2022/09/23 04:36:29;;;;;;;13.70;6.00;;;;;;;;;;4993564;28;20064;-80
2022/09/23 04:38:55;;;;;;;8.43;5.13;;;;;;;;;;4992570;28;20092;-81
2022/09/23 04:41:22;;;;;;;10.73;5.43;;;;;;;;;;4995226;28;20054;-81
2022/09/23 04:43:48;;;;;;;8.80;5.25;;;;;;;;;;4992172;28;20061;-81
2022/09/23 04:46:15;;;;;;;11.00;5.50;;;;;;;;;;5003928;28;20047;-81
2022/09/23 04:48:42;;;;;;;9.23;5.18;;;;;;;;;;4992131;28;20066;-80
2022/09/23 04:51:09;;;;;;;10.25;5.30;;;;;;;;;;4975624;28;20494;-81
2022/09/23 04:53:36;;;;;;;8.98;4.68;;;;;;;;;;4993942;28;20050;-81
2022/09/23 04:56:08;;;;;;;11.85;4.93;;;;;;;;;;4993892;28;20074;-79
2022/09/23 04:58:35;;;;;;;8.60;5.00;;;;;;;;;;4991906;28;20050;-80
2022/09/23 05:01:23;;;;;;;11.23;5.72;;;;;;;;;;4992988;28;20057;-80
2022/09/23 05:03:50;;;;;;;9.55;5.40;;;;;;;;;;4991819;28;20047;-80
2022/09/23 05:06:16;;;;;;;10.15;4.38;;;;;;;;;;4992085;28;20042;-80
2022/09/23 05:08:47;;;;;;;9.48;4.80;;;;;;;;;;4990371;28;20070;-80
2022/09/23 05:11:13;;;;;;;8.30;5.20;;;;;;;;;;4988073;28;20053;-81
2022/09/23 05:13:40;;;;;;;16.10;5.57;;;;;;;;;;4977587;28;20054;-81
2022/09/23 05:16:08;;;;;;;8.32;5.38;;;;;;;;;;4997283;28;20050;-80
2022/09/23 05:18:36;;;;;;;11.73;5.97;;;;;;;;;;4970294;28;20057;-80
2022/09/23 05:21:03;;;;;;;12.07;6.65;;;;;;;;;;4975338;28;20519;-80
2022/09/23 05:23:29;;;;;;;15.63;7.50;;;;;;;;;;4993039;28;20065;-80
2022/09/23 05:25:59;;;;;;;13.85;7.35;;;;;;;;;;4991339;28;20046;-78
2022/09/23 05:28:28;;;;;;;13.35;6.75;;;;;;;;;;4991520;28;20351;-80
2022/09/23 05:31:03;;;;;;;13.18;6.50;;;;;;;;;;4985116;28;20552;-78
2022/09/23 05:33:30;;;;;;;16.42;6.72;;;;;;;;;;4973181;28;20457;-81
2022/09/23 05:35:56;;;;;;;11.35;6.25;;;;;;;;;;5004137;28;20045;-81
2022/09/23 05:38:23;;;;;;;12.35;6.60;;;;;;;;;;4988076;28;20541;-80
2022/09/23 05:40:56;;;;;;;12.45;6.15;;;;;;;;;;4970358;28;20057;-81
2022/09/23 05:43:23;;;;;;;14.48;6.43;;;;;;;;;;4988878;28;20050;-80
2022/09/23 05:45:50;;;;;;;17.33;7.10;;;;;;;;;;4987941;28;20057;-80
2022/09/23 05:48:16;;;;;;;14.23;6.60;;;;;;;;;;4994298;28;20053;-79
2022/09/23 05:50:49;;;;;;;13.88;6.57;;;;;;;;;;5019886;28;20065;-77
2022/09/23 05:53:15;;;;;;;11.70;6.05;;;;;;;;;;5008478;28;20042;-82
2022/09/23 05:55:42;;;;;;;15.55;7.00;;;;;;;;;;5004489;28;20064;-81
2022/09/23 05:58:08;;;;;;;13.23;7.03;;;;;;;;;;4996633;28;20503;-81
2022/09/23 06:00:34;;;;;;;13.40;7.15;;;;;;;;;;5002969;28;20050;-78
2022/09/23 06:03:01;;;;;;;13.38;7.78;;;;;;;;;;4990350;28;20088;-81
2022/09/23 06:05:27;;;;;;;13.65;7.68;;;;;;;;;;4992225;28;20062;-79
2022/09/23 06:07:53;;;;;;;15.40;8.02;;;;;;;;;;4992749;28;20046;-81
2022/09/23 06:10:20;;;;;;;15.05;7.53;;;;;;;;;;4991768;28;20042;-79
2022/09/23 06:12:46;;;;;;;16.92;8.48;;;;;;;;;;4991325;28;20054;-77
2022/09/23 06:15:12;;;;;;;15.52;7.80;;;;;;;;;;4990433;28;20065;-81
2022/09/23 06:17:41;;;;;;;13.88;7.53;;;;;;;;;;4991222;28;20148;-81
2022/09/23 06:20:07;;;;;;;17.55;8.38;;;;;;;;;;4990899;28;20137;-81
2022/09/23 06:22:34;;;;;;;14.60;7.95;;;;;;;;;;4991028;28;20058;-81
2022/09/23 06:25:04;;;;;;;12.65;6.80;;;;;;;;;;4990989;28;20081;-80
2022/09/23 06:27:31;;;;;;;15.45;7.60;;;;;;;;;;4990932;28;20058;-81
2022/09/23 06:29:58;;;;;;;13.45;7.45;;;;;;;;;;4989549;28;20052;-82
2022/09/23 06:32:24;;;;;;;15.65;6.70;;;;;;;;;;4990770;28;20054;-81
2022/09/23 06:34:51;;;;;;;10.88;6.82;;;;;;;;;;4990533;28;20747;-79
2022/09/23 06:37:17;;;;;;;13.07;6.57;;;;;;;;;;4993952;28;20637;-77
2022/09/23 06:39:46;;;;;;;14.00;7.25;;;;;;;;;;4990800;28;20073;-80
2022/09/23 06:42:12;;;;;;;10.63;6.97;;;;;;;;;;4991236;28;20066;-81
2022/09/23 06:44:38;;;;;;;10.90;6.55;;;;;;;;;;4989203;28;20050;-81
2022/09/23 06:47:05;;;;;;;12.05;6.68;;;;;;;;;;4991673;28;20070;-79
2022/09/23 06:49:32;;;;;;;17.35;6.47;;;;;;;;;;4971912;28;20046;-81
2022/09/23 06:51:59;;;;;;;12.77;6.50;;;;;;;;;;4991148;28;20050;-81
2022/09/23 06:54:31;;;;;;;11.75;6.28;;;;;;;;;;4989927;28;20072;-81
2022/09/23 06:56:57;;;;;;;13.30;6.82;;;;;;;;;;4974577;28;20054;-80
2022/09/23 06:59:23;;;;;;;13.48;6.45;;;;;;;;;;4989875;28;20060;-80
2022/09/23 07:01:50;;;;;;;13.65;6.40;;;;;;;;;;4974143;28;20054;-81
2022/09/23 07:04:16;;;;;;;12.75;5.60;;;;;;;;;;4991067;28;20069;-79
2022/09/23 07:06:43;;;;;;;9.63;5.82;;;;;;;;;;4992577;28;20477;-81
2022/09/23 07:09:09;;;;;;;13.27;6.03;;;;;;;;;;4993811;28;20058;-79
2022/09/23 07:11:36;;;;;;;9.43;5.40;;;;;;;;;;5006114;28;20082;-80
2022/09/23 07:14:03;;;;;;;8.57;5.50;;;;;;;;;;5004557;28;20165;-78
2022/09/23 07:16:30;;;;;;;10.60;5.32;;;;;;;;;;4994210;28;20050;-80
2022/09/23 07:18:56;;;;;;;8.68;5.22;;;;;;;;;;4993327;28;20057;-80
2022/09/23 07:21:23;;;;;;;9.25;5.20;;;;;;;;;;4994733;28;20057;-79
2022/09/23 07:23:50;;;;;;;11.32;5.72;;;;;;;;;;4993384;28;20047;-79
2022/09/23 07:26:17;;;;;;;13.65;5.15;;;;;;;;;;4993221;28;20137;-82
2022/09/23 07:28:44;;;;;;;7.60;4.82;;;;;;;;;;4993155;28;20057;-82
2022/09/23 07:31:12;;;;;;;12.38;5.13;;;;;;;;;;4993554;28;20054;-82
2022/09/23 07:33:42;;;;;;;8.23;4.72;;;;;;;;;;4993485;28;20046;-81
2022/09/23 07:36:10;;;;;;;12.93;5.10;;;;;;;;;;4994228;28;20058;-81
2022/09/23 07:38:37;;;;;;;8.35;4.43;;;;;;;;;;4993059;28;20073;-81
2022/09/23 07:41:11;;;;;;;8.18;4.30;;;;;;;;;;4977357;28;20140;-82
2022/09/23 07:43:38;;;;;;;9.40;4.65;;;;;;;;;;4991913;28;20050;-81
2022/09/23 07:46:09;;;;;;;8.48;4.60;;;;;;;;;;4992769;28;20052;-82
2022/09/23 07:48:36;;;;;;;9.55;4.38;;;;;;;;;;4992286;28;20088;-80
2022/09/23 07:51:15;;;;;;;14.02;4.38;;;;;;;;;;4993585;28;20060;-78
2022/09/23 07:53:41;;;;;;;9.80;4.28;;;;;;;;;;4992647;28;20494;-79
2022/09/23 07:56:08;;;;;;;9.07;4.35;;;;;;;;;;4994726;28;20056;-81
2022/09/23 07:58:35;;;;;;;9.27;4.00;;;;;;;;;;4992589;28;20052;-81
2022/09/23 08:01:06;;;;;;;4.85;3.40;;;;;;;;;;4980971;28;20026;-80
2022/09/23 08:03:32;;;;;;;14.43;4.20;;;;;;;;;;4994667;28;20142;-79
2022/09/23 08:06:10;;;;;;;7.72;3.50;;;;;;;;;;4994069;28;20407;-80
2022/09/23 08:08:39;;;;;;;8.57;3.80;;;;;;;;;;4993578;28;20085;-79
2022/09/23 08:11:06;;;;;;;8.93;3.97;;;;;;;;;;4993882;28;20074;-79
2022/09/23 08:13:34;;;;;;;11.85;3.38;;;;;;;;;;4992956;28;20054;-80
2022/09/23 08:16:00;;;;;;;6.18;2.95;;;;;;;;;;4992928;28;20058;-80
2022/09/23 08:18:27;;;;;;;4.18;2.63;;;;;;;;;;4992198;28;20960;-80
2022/09/23 08:20:53;;;;;;;4.40;2.70;;;;;;;;;;4994539;28;20073;-79
2022/09/23 08:23:20;;;;;;;3.85;1.75;;;;;;;;;;4993883;28;20062;-80
2022/09/23 08:25:46;;;;;;;5.90;2.20;;;;;;;;;;4994068;28;20053;-80
2022/09/23 08:28:17;;;;;;;4.55;2.20;;;;;;;;;;4993574;28;20137;-80
2022/09/23 08:30:43;;;;;;;4.68;1.65;;;;;;;;;;4993499;28;20050;-81
2022/09/23 08:33:10;;;;;;;3.20;1.60;;;;;;;;;;4992380;28;20073;-81
2022/09/23 08:35:37;;;;;;;2.08;1.55;;;;;;;;;;4976506;28;20054;-81
2022/09/23 08:38:03;;;;;;;2.60;1.55;;;;;;;;;;4992218;28;20062;-80
2022/09/23 08:40:32;;;;;;;6.82;1.65;;;;;;;;;;4993489;28;20050;-81
2022/09/23 08:42:59;;;;;;;2.58;1.48;;;;;;;;;;4975750;28;20054;-80
2022/09/23 08:45:26;;;;;;;4.50;1.60;;;;;;;;;;4999706;28;20050;-80
2022/09/23 08:47:56;;;;;;;1.83;1.38;;;;;;;;;;5002946;28;20522;-80
2022/09/23 08:50:25;;;;;;;2.10;1.30;;;;;;;;;;4993017;28;20080;-81
2022/09/23 08:52:57;;;;;;;3.20;1.58;;;;;;;;;;4991959;28;20046;-81
2022/09/23 08:55:31;;;;;;;2.55;1.40;;;;;;;;;;4992981;28;20054;-80
2022/09/23 08:58:18;;;;;;;2.97;1.40;;;;;;;;;;4992059;28;20057;-80
2022/09/23 09:01:07;;;;;;;2.75;1.60;;;;;;;;;;4992962;28;20523;-80
2022/09/23 09:03:54;;;;;;;1.88;1.10;;;;;;;;;;4991820;28;20078;-79
2022/09/23 09:06:25;;;;;;;2.60;1.30;;;;;;;;;;4997631;28;20069;-82
2022/09/23 09:09:03;;;;;;;3.20;1.25;;;;;;;;;;4992202;28;20050;-81
2022/09/23 09:11:34;;;;;;;2.47;1.30;;;;;;;;;;5007544;28;20060;-80
2022/09/23 09:14:16;;;;;;;1.98;1.20;;;;;;;;;;5000664;28;20039;-79
2022/09/23 09:16:49;;;;;;;4.05;1.38;;;;;;;;;;5007287;28;20483;-80
2022/09/23 09:19:34;;;;;;;2.30;1.30;;;;;;;;;;4992321;28;20056;-80
2022/09/23 09:22:04;;;;;;;3.75;1.00;;;;;;;;;;4993505;28;20050;-81
2022/09/23 09:24:33;;;;;;;2.90;1.30;;;;;;;;;;4992812;28;20042;-81
2022/09/23 09:27:01;;;;;;;2.13;0.90;;;;;;;;;;4992756;28;20129;-81
2022/09/23 09:29:30;;;;;;;2.70;0.85;;;;;;;;;;4994505;28;20057;-81
2022/09/23 09:32:09;;;;;;;1.40;0.60;;;;;;;;;;4994464;28;20210;-81
2022/09/23 09:34:42;;;;;;;3.17;0.88;;;;;;;;;;4976492;28;20053;-81
2022/09/23 09:37:19;;;;;;;1.27;0.75;;;;;;;;;;4975377;28;20062;-80
2022/09/23 09:39:45;;;;;;;1.63;0.80;;;;;;;;;;4986718;28;20055;-79
2022/09/23 09:42:17;;;;;;;2.42;0.88;;;;;;;;;;4983012;28;20046;-80
2022/09/23 09:44:54;;;;;;;2.75;1.10;;;;;;;;;;4972787;28;20051;-81
2022/09/23 09:47:29;;;;;;;1.98;1.23;;;;;;;;;;4978300;28;20509;-80
2022/09/23 09:50:02;;;;;;;2.60;0.98;;;;;;;;;;4988679;28;20047;-82
2022/09/23 09:52:29;;;;;;;2.30;0.80;;;;;;;;;;4992143;28;20050;-80
2022/09/23 09:55:13;;;;;;;2.22;1.08;;;;;;;;;;4991698;28;20134;-81
2022/09/23 09:58:04;;;;;;;1.58;0.90;;;;;;;;;;4988496;28;21343;-79
2022/09/23 10:00:41;;;;;;;2.60;0.95;;;;;;;;;;4989443;28;20065;-81
2022/09/23 10:03:14;;;;;;;1.92;0.95;;;;;;;;;;4989216;28;20077;-80
2022/09/23 10:05:43;;;;;;;1.45;0.80;;;;;;;;;;4989827;28;20047;-81
2022/09/23 10:08:25;;;;;;;1.90;1.23;;;;;;;;;;4989749;28;20418;-81
2022/09/23 10:10:58;;;;;;;1.85;0.85;;;;;;;;;;4973056;28;20048;-82
2022/09/23 10:13:25;;;;;;;5.22;1.10;;;;;;;;;;4991120;28;20046;-81
2022/09/23 10:15:53;;;;;;;1.35;0.98;;;;;;;;;;4993884;28;20058;-82
2022/09/23 10:18:26;;;;;;;2.10;1.17;;;;;;;;;;4989331;28;20556;-80
2022/09/23 10:20:58;;;;;;;1.58;0.82;;;;;;;;;;4990845;28;20061;-81
2022/09/23 10:23:27;;;;;;;2.53;1.10;;;;;;;;;;4988998;28;20056;-81
2022/09/23 10:25:59;;;;;;;1.75;0.88;;;;;;;;;;4989304;28;20039;-80
2022/09/23 10:28:38;;;;;;;2.03;0.90;;;;;;;;;;4988866;28;20581;-81
2022/09/23 10:31:04;;;;;;;2.22;1.00;;;;;;;;;;4970855;28;20050;-80
2022/09/23 10:33:30;;;;;;;3.42;0.90;;;;;;;;;;4992978;28;20081;-81
2022/09/23 10:35:57;;;;;;;2.50;0.90;;;;;;;;;;4985907;28;20072;-80
2022/09/23 10:38:26;;;;;;;1.98;0.90;;;;;;;;;;4986667;28;20177;-80
2022/09/23 10:46:40;;;;;;;1.57;0.80;;;;;;;;;;4985846;28;20376;-81
2022/09/23 10:49:11;;;;;;;1.50;0.88;;;;;;;;;;4987192;28;20046;-81
2022/09/23 10:51:46;;;;;;;1.42;0.80;;;;;;;;;;4988284;28;20057;-80
2022/09/23 10:54:19;;;;;;;1.45;0.95;;;;;;;;;;4987904;28;20050;-79
2022/09/23 10:56:53;;;;;;;2.08;0.80;;;;;;;;;;4984051;28;20061;-78
2022/09/23 10:59:40;;;;;;;3.88;0.93;;;;;;;;;;4986796;28;20454;-77
2022/09/23 11:02:16;;;;;;;1.55;0.82;;;;;;;;;;4984095;28;20042;-80
2022/09/23 11:04:51;;;;;;;3.15;1.00;;;;;;;;;;4985960;28;20426;-80
2022/09/23 11:07:26;;;;;;;1.65;1.30;;;;;;;;;;4987205;28;20055;-79
2022/09/23 11:09:55;;;;;;;2.78;1.05;;;;;;;;;;4983997;28;20048;-79
2022/09/23 11:12:22;;;;;;;3.80;1.17;;;;;;;;;;4987349;28;20057;-80
2022/09/23 11:14:49;;;;;;;1.85;0.90;;;;;;;;;;4987206;28;20054;-79
2022/09/23 11:17:34;;;;;;;4.07;1.10;;;;;;;;;;4988705;28;20053;-80
2022/09/23 11:20:08;;;;;;;1.83;1.00;;;;;;;;;;4986322;28;20050;-79
2022/09/23 11:22:37;;;;;;;1.30;0.80;;;;;;;;;;4986832;28;20050;-79
2022/09/23 11:25:04;;;;;;;1.27;0.85;;;;;;;;;;4984782;28;20050;-80
2022/09/23 11:27:48;;;;;;;4.53;0.90;;;;;;;;;;4987939;28;20060;-80
2022/09/23 11:30:16;;;;;;;1.27;0.90;;;;;;;;;;4986623;28;20061;-80
2022/09/23 11:33:02;;;;;;;1.75;0.75;;;;;;;;;;4987319;28;20045;-81
2022/09/23 11:35:37;;;;;;;1.48;0.95;;;;;;;;;;4987703;28;20054;-78
2022/09/23 11:38:10;;;;;;;1.73;0.80;;;;;;;;;;4986324;28;20054;-81
2022/09/23 11:40:39;;;;;;;2.80;1.20;;;;;;;;;;4988341;28;20449;-80
2022/09/23 11:43:17;;;;;;;2.83;1.70;;;;;;;;;;4985964;28;20581;-80
2022/09/23 11:45:52;;;;;;;2.10;0.90;;;;;;;;;;4987407;28;20061;-80
2022/09/23 11:48:22;;;;;;;1.80;0.80;;;;;;;;;;4988332;28;20051;-80
2022/09/23 11:50:53;;;;;;;2.97;1.05;;;;;;;;;;4991164;28;20553;-81
2022/09/23 11:53:22;;;;;;;1.05;0.70;;;;;;;;;;4991220;28;20046;-80
2022/09/23 11:56:09;;;;;;;2.88;0.93;;;;;;;;;;4992164;28;20050;-81
2022/09/23 11:58:40;;;;;;;1.35;0.80;;;;;;;;;;4993798;28;20141;-82
2022/09/23 12:01:22;;;;;;;1.25;0.80;;;;;;;;;;5003091;28;20122;-81
2022/09/23 12:04:05;;;;;;;2.75;1.08;;;;;;;;;;5001091;28;20470;-80
2022/09/23 12:06:49;;;;;;;2.47;1.10;;;;;;;;;;4993003;28;20130;-79
2022/09/23 12:09:26;;;;;;;1.10;0.73;;;;;;;;;;4996013;28;20499;-80
2022/09/23 12:12:22;;;;;;;4.05;0.90;;;;;;;;;;4981677;28;20046;-79
2022/09/23 12:15:15;;;;;;;1.42;0.90;;;;;;;;;;4996954;28;20039;-80
2022/09/23 12:17:45;;;;;;;2.15;0.90;;;;;;;;;;4958208;28;20046;-79
2022/09/23 12:20:30;;;;;;;1.77;0.80;;;;;;;;;;4997674;28;20190;-81
2022/09/23 12:23:09;;;;;;;4.30;0.80;;;;;;;;;;4965872;28;20516;-80
2022/09/23 12:25:38;;;;;;;2.33;1.00;;;;;;;;;;4995814;28;20042;-81
2022/09/23 12:28:14;;;;;;;2.10;0.90;;;;;;;;;;4990646;28;20077;-79
2022/09/23 12:30:41;;;;;;;2.33;0.90;;;;;;;;;;4995969;28;20041;-80
2022/09/23 12:33:20;;;;;;;3.15;0.85;;;;;;;;;;5016354;28;20038;-80
2022/09/23 12:35:46;;;;;;;3.28;1.10;;;;;;;;;;5004176;28;20549;-80
2022/09/23 12:38:17;;;;;;;2.22;1.10;;;;;;;;;;4988815;28;20272;-82
2022/09/23 12:40:43;;;;;;;1.98;1.00;;;;;;;;;;4993373;28;20072;-80
2022/09/23 12:43:29;;;;;;;3.63;0.90;;;;;;;;;;4995487;28;20050;-79
2022/09/23 12:46:16;;;;;;;1.30;0.93;;;;;;;;;;4991300;28;20042;-79
2022/09/23 12:48:46;;;;;;;3.88;1.30;;;;;;;;;;4991219;28;20066;-80
2022/09/23 12:51:19;;;;;;;1.90;0.88;;;;;;;;;;4995718;28;20585;-81
2022/09/23 12:53:46;;;;;;;1.63;1.15;;;;;;;;;;4994703;28;20410;-81
2022/09/23 12:56:15;;;;;;;2.50;1.05;;;;;;;;;;4992290;28;20050;-81
2022/09/23 12:58:41;;;;;;;2.78;1.15;;;;;;;;;;4995300;28;20053;-80
2022/09/23 13:01:14;;;;;;;2.50;1.10;;;;;;;;;;4996530;28;20050;-83
2022/09/23 13:06:49;;;;;;;1.70;1.00;;;;;;;;;;4993483;28;20046;-81
2022/09/23 13:09:18;;;;;;;4.05;1.10;;;;;;;;;;4998032;28;20118;-81
2022/09/23 13:11:46;;;;;;;2.15;1.23;;;;;;;;;;5007059;28;20129;-80
2022/09/23 13:14:20;;;;;;;2.80;1.10;;;;;;;;;;4999169;28;20081;-80
2022/09/23 13:16:53;;;;;;;1.40;1.08;;;;;;;;;;5000367;28;20050;-79
2022/09/23 13:19:25;;;;;;;1.30;0.73;;;;;;;;;;4996812;28;20077;-79
2022/09/23 13:22:01;;;;;;;1.48;0.90;;;;;;;;;;4999901;28;20053;-81
2022/09/23 13:24:48;;;;;;;2.50;0.90;;;;;;;;;;4999964;28;20149;-80
2022/09/23 13:27:23;;;;;;;2.95;1.42;;;;;;;;;;4989462;28;20046;-79
2022/09/23 13:30:06;;;;;;;1.60;1.00;;;;;;;;;;4999849;28;20046;-79
2022/09/23 13:32:42;;;;;;;1.23;0.90;;;;;;;;;;4996843;28;20147;-80
2022/09/23 13:35:12;;;;;;;1.13;1.00;;;;;;;;;;4996193;28;20046;-80
2022/09/23 13:37:41;;;;;;;1.00;0.90;;;;;;;;;;5003487;28;20516;-80
2022/09/23 13:40:09;;;;;;;1.63;0.88;;;;;;;;;;4998729;28;20262;-80
2022/09/23 13:42:38;;;;;;;1.92;0.82;;;;;;;;;;4998593;28;20054;-79
2022/09/23 13:45:11;;;;;;;2.17;0.98;;;;;;;;;;4998789;28;20066;-81
2022/09/23 13:47:40;;;;;;;3.72;0.90;;;;;;;;;;4980920;28;20064;-80
2022/09/23 13:50:13;;;;;;;1.00;0.80;;;;;;;;;;5005469;28;20091;-79
2022/09/23 13:52:40;;;;;;;2.20;1.00;;;;;;;;;;4983229;28;20050;-80
2022/09/23 13:55:22;;;;;;;1.77;0.90;;;;;;;;;;4994644;28;20540;-78
2022/09/23 13:57:55;;;;;;;2.08;0.90;;;;;;;;;;4990884;28;20052;-81
2022/09/23 14:00:23;;;;;;;1.75;0.93;;;;;;;;;;4992476;28;20046;-81
2022/09/23 14:02:51;;;;;;;3.70;0.90;;;;;;;;;;5000854;28;20073;-83
2022/09/23 14:05:22;;;;;;;1.45;0.90;;;;;;;;;;4996332;28;20410;-82
2022/09/23 14:07:49;;;;;;;3.97;1.10;;;;;;;;;;4993515;28;20046;-81
2022/09/23 14:10:19;;;;;;;3.83;0.98;;;;;;;;;;4989851;28;20061;-81
2022/09/23 14:12:47;;;;;;;0.75;0.70;;;;;;;;;;4990796;28;20065;-80
2022/09/23 14:15:15;;;;;;;1.17;0.80;;;;;;;;;;4991635;28;20042;-81
2022/09/23 14:17:44;;;;;;;3.05;0.98;;;;;;;;;;5003431;28;20061;-80
2022/09/23 14:20:16;;;;;;;1.30;1.00;;;;;;;;;;5003570;28;20138;-81
2022/09/23 14:22:42;;;;;;;1.95;1.17;;;;;;;;;;4988815;28;20109;-80
2022/09/23 14:25:12;;;;;;;1.58;0.98;;;;;;;;;;4987930;28;20057;-81
2022/09/23 14:27:39;;;;;;;3.75;1.10;;;;;;;;;;4992644;28;20478;-79
2022/09/23 14:30:12;;;;;;;1.77;0.90;;;;;;;;;;4992573;28;20050;-80
2022/09/23 14:32:39;;;;;;;3.90;1.15;;;;;;;;;;4990524;28;20323;-79
2022/09/23 14:35:15;;;;;;;3.63;1.15;;;;;;;;;;4986937;28;20050;-81
2022/09/23 14:40:31;;;;;;;2.78;1.08;;;;;;;;;;4986335;28;20054;-80
2022/09/23 14:43:03;;;;;;;2.13;1.20;;;;;;;;;;4985729;28;20101;-80
2022/09/23 14:45:31;;;;;;;5.15;1.00;;;;;;;;;;4984699;28;20050;-81
2022/09/23 14:47:59;;;;;;;2.13;0.95;;;;;;;;;;4987185;28;20050;-81
2022/09/23 14:50:42;;;;;;;4.68;1.20;;;;;;;;;;4986946;28;20475;-81
2022/09/23 14:53:30;;;;;;;3.13;1.15;;;;;;;;;;4979052;28;20050;-80
2022/09/23 14:56:06;;;;;;;2.10;1.20;;;;;;;;;;5001020;28;20050;-80
2022/09/23 14:58:32;;;;;;;;;;;;;;;;;;4986454;28;20400;-81
2022/09/23 15:00:59;;;;;;;;;;;;;;;;;;4988937;28;19932;-82
2022/09/23 15:03:27;;;;;;;3.40;1.20;;;;;;;;;;4990953;28;20280;-81
2022/09/23 15:06:01;;;;;;;2.55;1.40;;;;;;;;;;4992142;28;20121;-81
2022/09/23 15:08:34;;;;;;;2.80;1.30;;;;;;;;;;4989159;28;20073;-82
2022/09/23 15:11:03;;;;;;;4.43;1.27;;;;;;;;;;4990793;28;20118;-81
2022/09/23 15:13:36;;;;;;;4.35;1.30;;;;;;;;;;4990981;28;20060;-82
2022/09/23 15:16:04;;;;;;;2.08;1.05;;;;;;;;;;4991234;28;20073;-81